Time;durP1;ratioP1;P1;durP2;ratioP2;P2;SDS_P1;SDS_P2;PMS_P1;PMS_P2;Temp;Humidity;BMP_temperature;BMP_pressure;BME280_temperature;BME280_humidity;BME280_pressure;Samples;Min_cycle;Max_cycle;Signal;HPM_P1;HPM_P2
2022/12/13 00:00:54;;;;;;;59.88;28.73;;;-4.40;99.90;;;;;;5080477;28;20028;-84
2022/12/13 00:03:20;;;;;;;55.88;29.45;;;;;;;;;;5059471;28;20047;-84
2022/12/13 00:05:45;;;;;;;56.92;29.35;;;-4.50;99.90;;;;;;5078791;28;20460;-84
2022/12/13 00:08:11;;;;;;;54.30;27.40;;;-4.50;99.90;;;;;;5078372;28;20040;-84
2022/12/13 00:10:37;;;;;;;56.00;28.75;;;-4.60;99.90;;;;;;5059228;28;20068;-84
2022/12/13 00:13:03;;;;;;;50.67;28.73;;;-4.60;99.90;;;;;;5082119;28;20114;-84
2022/12/13 00:15:29;;;;;;;53.97;27.92;;;-4.70;99.90;;;;;;5067293;28;20066;-84
2022/12/13 00:17:54;;;;;;;54.35;26.85;;;-4.70;99.90;;;;;;5090382;28;20036;-83
2022/12/13 00:20:20;;;;;;;52.95;27.63;;;-4.70;99.90;;;;;;5069978;28;20051;-83
2022/12/13 00:22:46;;;;;;;57.80;27.65;;;-4.70;99.90;;;;;;5087864;28;20048;-83
2022/12/13 00:25:11;;;;;;;53.60;29.08;;;-4.70;99.90;;;;;;5092957;28;20078;-82
2022/12/13 00:27:37;;;;;;;52.03;28.35;;;-4.70;99.90;;;;;;5073742;28;20039;-81
2022/12/13 00:30:03;;;;;;;52.97;27.02;;;-4.80;99.90;;;;;;5088625;28;20040;-81
2022/12/13 00:32:29;;;;;;;53.75;28.40;;;-4.70;99.90;;;;;;5085439;28;20103;-81
2022/12/13 00:34:54;;;;;;;54.13;28.25;;;-4.80;99.90;;;;;;5080671;28;20120;-82
2022/12/13 00:37:20;;;;;;;53.80;27.38;;;-4.50;99.90;;;;;;5078865;28;20041;-82
2022/12/13 00:39:45;;;;;;;58.30;28.50;;;-4.70;99.90;;;;;;5079239;28;20040;-81
2022/12/13 00:42:11;;;;;;;63.50;30.45;;;-4.60;99.90;;;;;;5082721;28;20041;-81
2022/12/13 00:44:37;;;;;;;54.22;28.05;;;-4.70;99.90;;;;;;5081970;28;20040;-81
2022/12/13 00:47:02;;;;;;;61.65;29.08;;;-4.70;99.90;;;;;;5084707;28;20385;-81
2022/12/13 00:49:28;;;;;;;58.97;29.75;;;-4.70;99.90;;;;;;5054127;28;20052;-81
2022/12/13 00:51:54;;;;;;;56.10;28.65;;;-4.70;99.90;;;;;;5088206;28;20037;-81
2022/12/13 00:54:19;;;;;;;59.03;28.67;;;-4.70;99.90;;;;;;5107665;28;20040;-80
2022/12/13 00:56:45;;;;;;;63.55;29.45;;;-4.80;99.90;;;;;;5068681;28;20122;-80
2022/12/13 00:59:13;;;;;;;56.03;29.73;;;-4.80;99.90;;;;;;5083792;28;20036;-80
2022/12/13 01:01:39;;;;;;;60.97;28.88;;;-4.80;99.90;;;;;;5096814;28;20091;-81
2022/12/13 01:04:06;;;;;;;58.58;29.40;;;-4.80;99.90;;;;;;5099737;28;20036;-80
2022/12/13 01:06:44;;;;;;;63.23;29.33;;;-4.90;99.90;;;;;;5097824;28;20040;-79
2022/12/13 01:09:28;;;;;;;60.15;28.95;;;-4.80;99.90;;;;;;5094604;28;20648;-80
2022/12/13 01:12:05;;;;;;;57.65;28.67;;;-4.80;99.90;;;;;;5088147;28;20119;-79
2022/12/13 01:14:31;;;;;;;61.85;30.58;;;;;;;;;;5073180;28;20048;-79
2022/12/13 01:16:58;;;;;;;75.18;29.40;;;-5.00;99.90;;;;;;5086475;28;20139;-79
2022/12/13 01:19:26;;;;;;;68.50;30.85;;;-5.00;99.90;;;;;;5065631;28;20036;-79
2022/12/13 01:22:00;;;;;;;58.63;31.02;;;-5.00;99.90;;;;;;5068192;28;20032;-79
2022/12/13 01:24:27;;;;;;;61.33;30.52;;;-5.00;99.90;;;;;;5077693;28;20694;-79
2022/12/13 01:26:53;;;;;;;57.13;29.23;;;-5.00;99.90;;;;;;5076967;28;20056;-79
2022/12/13 01:29:20;;;;;;;56.13;27.70;;;-5.10;99.90;;;;;;5079375;28;20047;-78
2022/12/13 01:31:46;;;;;;;59.75;30.65;;;-5.00;99.90;;;;;;5076425;28;20075;-79
2022/12/13 01:34:14;;;;;;;61.50;29.35;;;-5.00;99.90;;;;;;5081743;28;20045;-78
2022/12/13 01:36:41;;;;;;;64.25;30.35;;;-5.00;99.90;;;;;;5078266;28;20375;-78
2022/12/13 01:39:08;;;;;;;58.30;28.58;;;-5.10;99.90;;;;;;5079563;28;20040;-79
2022/12/13 01:41:34;;;;;;;62.47;30.63;;;-5.10;99.90;;;;;;5083740;28;20045;-79
2022/12/13 01:44:03;;;;;;;64.68;30.92;;;-5.00;99.90;;;;;;5080711;28;20111;-78
2022/12/13 01:46:30;;;;;;;;;;;-5.10;99.90;;;;;;5082490;28;20066;-78
2022/12/13 01:49:04;;;;;;;59.87;28.93;;;-5.00;99.90;;;;;;5066209;28;19920;-79
2022/12/13 01:51:38;;;;;;;58.80;28.17;;;-5.00;99.90;;;;;;5068593;28;20371;-80
2022/12/13 01:54:10;;;;;;;63.50;31.15;;;-5.10;99.90;;;;;;5087938;28;20041;-79
2022/12/13 01:56:43;;;;;;;62.55;30.77;;;-5.10;99.90;;;;;;5086274;28;20498;-78
2022/12/13 01:59:11;;;;;;;60.53;31.23;;;-5.10;99.90;;;;;;5072115;28;20036;-78
2022/12/13 02:01:38;;;;;;;57.33;30.92;;;-5.10;99.90;;;;;;5078993;28;20508;-78
2022/12/13 02:04:03;;;;;;;57.25;28.75;;;-5.10;99.90;;;;;;5081813;28;20044;-78
2022/12/13 02:06:36;;;;;;;59.10;30.10;;;-5.20;99.90;;;;;;5065067;28;20040;-78
2022/12/13 02:09:04;;;;;;;57.03;28.77;;;-5.20;99.90;;;;;;5063293;28;20557;-78
2022/12/13 02:11:30;;;;;;;59.97;29.55;;;-5.20;99.90;;;;;;5076132;28;20065;-78
2022/12/13 02:13:55;;;;;;;59.80;30.33;;;-5.20;99.90;;;;;;5085797;28;20551;-78
2022/12/13 02:16:30;;;;;;;58.33;30.13;;;-5.20;99.90;;;;;;5080282;28;20036;-78
2022/12/13 02:19:07;;;;;;;66.18;31.17;;;-5.20;99.90;;;;;;5085960;28;20042;-78
2022/12/13 02:21:55;;;;;;;60.13;29.25;;;-5.20;99.90;;;;;;5076469;28;20036;-78
2022/12/13 02:24:42;;;;;;;57.40;29.85;;;-5.20;99.90;;;;;;5077505;28;20044;-78
2022/12/13 02:27:38;;;;;;;61.63;30.10;;;-5.20;99.90;;;;;;5063609;28;20089;-78
2022/12/13 02:30:19;;;;;;;58.65;29.92;;;-5.20;99.90;;;;;;5081736;28;20297;-78
2022/12/13 02:33:07;;;;;;;61.90;28.60;;;-5.20;99.90;;;;;;5078892;28;20054;-78
2022/12/13 02:35:41;;;;;;;66.05;30.92;;;-5.20;99.90;;;;;;5066842;28;20097;-79
2022/12/13 02:38:30;;;;;;;62.63;29.15;;;-5.30;99.90;;;;;;5076670;28;20052;-78
2022/12/13 02:41:18;;;;;;;63.03;29.85;;;-5.30;99.90;;;;;;5073896;28;20044;-78
2022/12/13 02:43:58;;;;;;;58.17;29.92;;;-5.20;99.90;;;;;;5087344;28;20444;-79
2022/12/13 02:46:28;;;;;;;57.67;30.38;;;-5.30;99.90;;;;;;5079054;28;20044;-79
2022/12/13 02:48:56;;;;;;;56.30;28.77;;;-5.30;99.90;;;;;;5095049;28;20040;-79
2022/12/13 02:51:22;;;;;;;57.38;29.23;;;-5.30;99.90;;;;;;5083737;28;20119;-78
2022/12/13 02:53:48;;;;;;;62.05;29.33;;;-5.30;99.90;;;;;;5075907;28;20389;-78
2022/12/13 02:56:14;;;;;;;57.92;29.88;;;-5.30;99.90;;;;;;5082615;28;20040;-78
2022/12/13 02:58:50;;;;;;;60.88;30.33;;;-5.30;99.90;;;;;;5079397;28;20043;-78
2022/12/13 03:01:39;;;;;;;60.22;30.40;;;-5.30;99.90;;;;;;5087983;28;20064;-79
2022/12/13 03:07:37;;;;;;;63.03;30.63;;;-5.30;99.90;;;;;;5081701;28;20052;-78
2022/12/13 03:10:16;;;;;;;57.00;29.25;;;-5.30;99.90;;;;;;5083773;28;20047;-78
2022/12/13 03:15:51;;;;;;;62.13;30.88;;;-5.40;99.90;;;;;;5082445;28;20036;-78
2022/12/13 03:18:20;;;;;;;70.90;31.98;;;-5.30;99.90;;;;;;5080769;28;20127;-79
2022/12/13 03:20:51;;;;;;;60.78;31.48;;;-5.30;99.90;;;;;;5046378;28;20129;-78
2022/12/13 03:23:18;;;;;;;69.20;34.65;;;-5.30;99.90;;;;;;5079873;28;20123;-78
2022/12/13 03:25:48;;;;;;;70.18;35.50;;;-5.30;99.90;;;;;;5061385;28;20088;-79
2022/12/13 03:28:14;;;;;;;73.75;34.53;;;-5.30;99.90;;;;;;5048599;28;20109;-80
2022/12/13 03:30:39;;;;;;;72.25;34.45;;;-5.30;99.90;;;;;;5082121;28;20493;-79
2022/12/13 03:33:05;;;;;;;71.57;33.70;;;-5.30;99.90;;;;;;5076454;28;20522;-79
2022/12/13 03:35:31;;;;;;;72.80;36.88;;;-5.30;99.90;;;;;;5086610;28;20540;-79
2022/12/13 03:37:58;;;;;;;70.70;33.83;;;-5.30;99.90;;;;;;5097023;28;20040;-79
2022/12/13 03:40:24;;;;;;;75.72;35.78;;;-5.40;99.90;;;;;;5093062;28;20091;-79
2022/12/13 03:42:49;;;;;;;68.50;34.55;;;-5.40;99.90;;;;;;5082538;28;20127;-79
2022/12/13 03:45:17;;;;;;;69.32;35.17;;;-5.50;99.90;;;;;;5083115;28;20040;-79
2022/12/13 03:47:43;;;;;;;80.18;34.80;;;-5.50;99.90;;;;;;5099435;28;21867;-79
2022/12/13 03:50:08;;;;;;;74.70;35.15;;;-5.50;99.90;;;;;;5083956;28;20336;-80
2022/12/13 03:52:34;;;;;;;74.95;35.75;;;-5.50;99.90;;;;;;5060819;28;20047;-79
2022/12/13 03:55:00;;;;;;;70.75;35.42;;;-5.50;99.90;;;;;;5082370;28;20047;-79
2022/12/13 03:57:25;;;;;;;73.70;34.53;;;-5.50;99.90;;;;;;5078004;28;20076;-80
2022/12/13 03:59:51;;;;;;;67.72;35.60;;;-5.60;99.90;;;;;;5077493;28;20043;-80
2022/12/13 04:02:16;;;;;;;69.13;36.20;;;-5.60;99.90;;;;;;5079107;28;20036;-80
2022/12/13 04:04:42;;;;;;;72.45;35.15;;;-5.70;99.90;;;;;;5067740;28;20044;-80
2022/12/13 04:07:08;;;;;;;71.88;33.53;;;-5.60;99.90;;;;;;5080647;28;20090;-80
2022/12/13 04:09:33;;;;;;;67.50;33.38;;;-5.60;99.90;;;;;;5066607;28;20428;-79
2022/12/13 04:14:43;;;;;;;62.25;32.67;;;-5.80;99.90;;;;;;5081646;28;20051;-80
2022/12/13 04:17:08;;;;;;;65.32;32.85;;;-5.80;99.90;;;;;;5084048;28;20090;-79
2022/12/13 04:19:34;;;;;;;72.03;34.13;;;-5.80;99.90;;;;;;5090219;28;20071;-79
2022/12/13 04:22:00;;;;;;;73.93;35.50;;;-5.80;99.90;;;;;;5091275;28;20111;-79
2022/12/13 04:24:25;;;;;;;62.97;34.55;;;-5.80;99.90;;;;;;5068764;28;20125;-79
2022/12/13 04:26:51;;;;;;;72.60;34.15;;;-5.70;99.90;;;;;;5084751;28;20032;-79
2022/12/13 04:29:16;;;;;;;68.80;34.55;;;-5.80;99.90;;;;;;5051518;28;20510;-79
2022/12/13 04:31:42;;;;;;;75.30;34.45;;;-5.80;99.90;;;;;;5082736;28;20048;-79
2022/12/13 04:34:07;;;;;;;68.70;34.72;;;-5.80;99.90;;;;;;5076248;28;20038;-79
2022/12/13 04:36:33;;;;;;;77.50;35.53;;;-5.80;99.90;;;;;;5075728;28;20125;-79
2022/12/13 04:39:04;;;;;;;66.60;33.50;;;-5.70;99.90;;;;;;5089498;28;20869;-79
2022/12/13 04:41:35;;;;;;;72.30;33.63;;;-5.70;99.90;;;;;;5083714;28;20428;-79
2022/12/13 04:44:01;;;;;;;67.30;33.83;;;-5.80;99.90;;;;;;5078312;28;20180;-78
2022/12/13 04:46:27;;;;;;;68.15;35.95;;;-5.70;99.90;;;;;;5093296;28;20174;-78
2022/12/13 04:48:52;;;;;;;80.05;36.00;;;-5.80;99.90;;;;;;5066454;28;20127;-79
2022/12/13 04:51:18;;;;;;;72.78;34.90;;;-5.70;99.90;;;;;;5081708;28;20040;-78
2022/12/13 04:53:44;;;;;;;76.60;36.53;;;-5.70;99.90;;;;;;5087857;28;20040;-79
2022/12/13 04:56:10;;;;;;;78.78;35.92;;;-5.70;99.90;;;;;;5093507;28;20070;-79
2022/12/13 04:58:35;;;;;;;78.25;36.72;;;-5.70;99.90;;;;;;5088757;28;20445;-79
2022/12/13 05:01:04;;;;;;;72.97;35.45;;;-5.70;99.90;;;;;;5085364;28;20043;-79
2022/12/13 05:03:30;;;;;;;74.80;34.40;;;-5.70;99.90;;;;;;5056165;28;20066;-80
2022/12/13 05:05:55;;;;;;;71.57;34.95;;;-5.70;99.90;;;;;;5086842;28;20534;-80
2022/12/13 05:08:21;;;;;;;71.70;34.25;;;-5.70;99.90;;;;;;5086424;28;20190;-79
2022/12/13 05:10:47;;;;;;;72.97;34.78;;;-5.80;99.90;;;;;;5081202;28;20059;-79
2022/12/13 05:13:12;;;;;;;71.03;35.42;;;-5.80;99.90;;;;;;5066489;28;20413;-79
2022/12/13 05:15:38;;;;;;;65.55;33.33;;;-5.80;99.90;;;;;;5088021;28;20048;-79
2022/12/13 05:18:05;;;;;;;71.13;35.30;;;-5.80;99.90;;;;;;5092778;28;20115;-79
2022/12/13 05:20:31;;;;;;;68.55;34.38;;;-5.80;99.90;;;;;;5071702;28;20123;-78
2022/12/13 05:22:57;;;;;;;70.40;35.30;;;-5.70;99.90;;;;;;5090193;28;20151;-78
2022/12/13 05:25:26;;;;;;;76.72;36.75;;;-5.70;99.90;;;;;;5068700;28;20040;-78
2022/12/13 05:27:52;;;;;;;73.47;36.33;;;-5.70;99.90;;;;;;5081542;28;20043;-78
2022/12/13 05:30:19;;;;;;;68.97;34.75;;;-5.80;99.90;;;;;;5069289;28;20048;-80
2022/12/13 05:32:44;;;;;;;70.55;35.58;;;-5.80;99.90;;;;;;5093386;28;20036;-80
2022/12/13 05:35:14;;;;;;;73.03;34.47;;;-5.80;99.90;;;;;;5087950;28;20513;-80
2022/12/13 05:37:40;;;;;;;72.13;33.88;;;-5.80;99.90;;;;;;5085096;28;20397;-80
2022/12/13 05:40:07;;;;;;;69.45;34.80;;;-5.80;99.90;;;;;;5084889;28;20084;-80
2022/12/13 05:42:37;;;;;;;72.53;33.83;;;-5.80;99.90;;;;;;5090797;28;20055;-80
2022/12/13 05:45:04;;;;;;;69.80;34.08;;;-5.80;99.90;;;;;;5091831;28;20040;-80
2022/12/13 05:47:29;;;;;;;75.10;36.28;;;-5.80;99.90;;;;;;5089182;28;20091;-79
2022/12/13 05:49:55;;;;;;;71.32;35.13;;;-5.80;99.90;;;;;;5091374;28;20043;-79
2022/12/13 05:52:21;;;;;;;78.63;36.83;;;-5.90;99.90;;;;;;5075608;28;20048;-80
2022/12/13 05:54:47;;;;;;;76.45;37.08;;;-5.90;99.90;;;;;;5088928;28;20040;-80
2022/12/13 05:57:14;;;;;;;84.07;38.40;;;-5.90;99.90;;;;;;5056863;28;20150;-79
2022/12/13 05:59:39;;;;;;;75.00;35.67;;;-5.90;99.90;;;;;;5105436;28;20055;-80
2022/12/13 06:02:05;;;;;;;73.07;37.03;;;-5.90;99.90;;;;;;5112656;28;20032;-80
2022/12/13 06:04:31;;;;;;;78.65;36.38;;;-5.90;99.90;;;;;;5096469;28;20110;-81
2022/12/13 06:06:56;;;;;;;82.38;36.97;;;-5.90;99.90;;;;;;5088968;28;20052;-80
2022/12/13 06:09:22;;;;;;;77.47;36.03;;;-5.90;99.90;;;;;;5093687;28;20032;-80
2022/12/13 06:11:48;;;;;;;78.25;35.58;;;-5.90;99.90;;;;;;5092130;28;20093;-81
2022/12/13 06:14:14;;;;;;;81.43;36.47;;;-5.90;99.90;;;;;;5078350;28;20032;-81
2022/12/13 06:16:42;;;;;;;73.72;35.38;;;-5.80;99.90;;;;;;5093019;28;20048;-80
2022/12/13 06:19:08;;;;;;;69.03;35.63;;;-5.80;99.90;;;;;;5081146;28;20509;-80
2022/12/13 06:21:34;;;;;;;76.80;37.33;;;-5.90;99.90;;;;;;5085796;28;20482;-80
2022/12/13 06:23:59;;;;;;;78.97;35.95;;;-5.90;99.90;;;;;;5084022;28;20111;-80
2022/12/13 06:26:25;;;;;;;74.40;35.30;;;-5.90;99.90;;;;;;5082030;28;20136;-80
2022/12/13 06:28:51;;;;;;;73.13;36.90;;;-6.00;99.90;;;;;;5093378;28;20110;-80
2022/12/13 06:31:17;;;;;;;80.55;35.42;;;-5.90;99.90;;;;;;5063921;28;20123;-79
2022/12/13 06:33:43;;;;;;;78.15;36.63;;;-5.90;99.90;;;;;;5083364;28;20105;-78
2022/12/13 06:36:11;;;;;;;74.93;34.97;;;-5.90;99.90;;;;;;5081767;28;20051;-79
2022/12/13 06:38:37;;;;;;;78.45;37.40;;;-6.00;99.90;;;;;;5063949;28;20433;-79
2022/12/13 06:41:07;;;;;;;73.57;36.15;;;-6.00;99.90;;;;;;5081514;28;20038;-79
2022/12/13 06:43:32;;;;;;;74.72;36.83;;;-6.00;99.90;;;;;;5085481;28;20136;-79
2022/12/13 06:45:58;;;;;;;81.90;38.33;;;-6.00;99.90;;;;;;5096805;28;20491;-79
2022/12/13 06:48:23;;;;;;;72.82;37.35;;;-6.00;99.90;;;;;;5096326;28;20501;-78
2022/12/13 06:50:49;;;;;;;73.40;35.38;;;-6.00;99.90;;;;;;5082577;28;20123;-78
2022/12/13 06:53:15;;;;;;;78.18;36.33;;;-6.00;99.90;;;;;;5076319;28;20078;-78
2022/12/13 06:55:40;;;;;;;71.20;34.97;;;-6.10;99.90;;;;;;5089948;28;20055;-78
2022/12/13 06:58:06;;;;;;;74.13;35.15;;;-6.00;99.90;;;;;;5091125;28;20032;-78
2022/12/13 07:00:31;;;;;;;74.18;32.95;;;-6.00;99.90;;;;;;5074355;28;20127;-78
2022/12/13 07:02:57;;;;;;;66.75;34.50;;;-6.00;99.90;;;;;;5082295;28;20037;-78
2022/12/13 07:05:23;;;;;;;72.80;33.97;;;-6.00;99.90;;;;;;5085568;28;20032;-78
2022/12/13 07:07:49;;;;;;;73.72;34.30;;;-6.00;99.90;;;;;;5091546;28;20047;-78
2022/12/13 07:10:15;;;;;;;74.70;35.45;;;-6.00;99.90;;;;;;5089875;28;20036;-78
2022/12/13 07:12:40;;;;;;;66.72;32.50;;;-6.00;99.90;;;;;;5089426;28;20075;-77
2022/12/13 07:15:06;;;;;;;71.82;35.35;;;-6.00;99.90;;;;;;5082066;28;20056;-78
2022/12/13 07:17:32;;;;;;;78.35;35.47;;;-6.00;99.90;;;;;;5080548;28;20058;-78
2022/12/13 07:19:58;;;;;;;68.53;33.55;;;-6.00;99.90;;;;;;5067135;28;20115;-79
2022/12/13 07:22:23;;;;;;;75.68;35.72;;;-6.10;99.90;;;;;;5076808;28;20485;-78
2022/12/13 07:24:49;;;;;;;73.47;34.45;;;-6.10;99.90;;;;;;5066332;28;20123;-78
2022/12/13 07:27:14;;;;;;;75.45;34.90;;;-6.10;99.90;;;;;;5066904;28;20040;-78
2022/12/13 07:29:40;;;;;;;74.25;35.28;;;-6.10;99.90;;;;;;5065124;28;20147;-79
2022/12/13 07:32:06;;;;;;;73.30;35.35;;;-6.10;99.90;;;;;;5080053;28;20048;-77
2022/12/13 07:34:31;;;;;;;69.10;34.03;;;-6.10;99.90;;;;;;5077455;28;20040;-78
2022/12/13 07:36:57;;;;;;;77.40;34.42;;;-6.10;99.90;;;;;;5063407;28;20463;-78
2022/12/13 07:39:26;;;;;;;71.78;35.03;;;-6.20;99.90;;;;;;5053318;28;20051;-78
2022/12/13 07:41:55;;;;;;;70.10;33.10;;;-6.20;99.90;;;;;;5081935;28;20044;-78
2022/12/13 07:44:21;;;;;;;67.82;33.63;;;-6.10;99.90;;;;;;5080943;28;20367;-77
2022/12/13 07:46:46;;;;;;;78.97;35.53;;;-6.10;99.90;;;;;;5076492;28;20050;-76
2022/12/13 07:49:12;;;;;;;75.28;32.90;;;-6.10;99.90;;;;;;5080816;28;20040;-77
2022/12/13 07:51:37;;;;;;;74.15;34.83;;;-6.10;99.90;;;;;;5075816;28;20618;-76
2022/12/13 07:54:04;;;;;;;73.03;34.45;;;-6.10;99.90;;;;;;5077946;28;20047;-78
2022/12/13 07:56:29;;;;;;;73.28;35.58;;;-6.10;99.90;;;;;;5081378;28;20526;-77
2022/12/13 07:58:55;;;;;;;68.05;34.08;;;-6.10;99.90;;;;;;5080961;28;20120;-79
2022/12/13 08:01:20;;;;;;;71.65;33.67;;;-6.00;99.90;;;;;;5063852;28;20045;-77
2022/12/13 08:03:49;;;;;;;71.43;35.53;;;-6.00;99.90;;;;;;5088478;28;20044;-76
2022/12/13 08:06:15;;;;;;;73.82;34.67;;;-6.00;99.90;;;;;;5069772;28;20047;-77
2022/12/13 08:08:40;;;;;;;75.40;34.50;;;-6.00;99.90;;;;;;5069293;28;20490;-77
2022/12/13 08:11:09;;;;;;;68.50;32.45;;;-5.90;99.90;;;;;;5062097;28;20051;-76
2022/12/13 08:13:35;;;;;;;70.07;32.17;;;-5.90;99.90;;;;;;5076254;28;20056;-76
2022/12/13 08:16:05;;;;;;;71.68;33.30;;;-5.90;99.90;;;;;;5079336;28;20498;-77
2022/12/13 08:18:31;;;;;;;69.00;34.78;;;-5.90;99.90;;;;;;5089924;28;20516;-76
2022/12/13 08:21:04;;;;;;;71.55;34.30;;;-5.80;99.90;;;;;;5082483;28;20085;-76
2022/12/13 08:23:33;;;;;;;67.55;33.22;;;-5.80;99.90;;;;;;5081548;28;20123;-78
2022/12/13 08:26:00;;;;;;;65.35;32.88;;;-5.80;99.90;;;;;;5062065;28;20072;-76
2022/12/13 08:28:27;;;;;;;69.28;32.30;;;-5.80;99.90;;;;;;5061014;28;20539;-77
2022/12/13 08:30:53;;;;;;;68.22;33.13;;;-5.80;99.90;;;;;;5046074;28;20085;-77
2022/12/13 08:33:19;;;;;;;66.68;32.85;;;-5.70;99.90;;;;;;5060078;28;20097;-77
2022/12/13 08:35:46;;;;;;;61.78;31.85;;;-5.70;99.90;;;;;;5083645;28;20439;-77
2022/12/13 08:38:12;;;;;;;73.25;34.88;;;-5.60;99.90;;;;;;5069612;28;20043;-77
2022/12/13 08:40:37;;;;;;;67.15;32.97;;;-5.60;99.90;;;;;;5060294;28;20048;-77
2022/12/13 08:43:03;;;;;;;75.10;34.28;;;-5.60;99.90;;;;;;5085768;28;20361;-77
2022/12/13 08:45:32;;;;;;;68.97;34.05;;;-5.50;99.90;;;;;;5082882;28;20082;-77
2022/12/13 08:47:59;;;;;;;73.00;34.78;;;-5.40;99.90;;;;;;5047633;28;20075;-76
2022/12/13 08:50:25;;;;;;;67.68;34.08;;;-5.40;99.90;;;;;;5089966;28;20040;-75
2022/12/13 08:52:51;;;;;;;67.75;33.65;;;-5.40;99.90;;;;;;5069699;28;20097;-76
2022/12/13 08:55:17;;;;;;;72.13;35.50;;;-5.30;99.90;;;;;;5083637;28;20036;-76
2022/12/13 08:57:44;;;;;;;65.88;33.15;;;-5.20;99.90;;;;;;5090086;28;20043;-76
2022/12/13 09:00:14;;;;;;;78.43;36.10;;;-5.10;99.90;;;;;;5066534;28;20123;-75
2022/12/13 09:02:39;;;;;;;73.65;34.97;;;-5.00;99.90;;;;;;5089324;28;20036;-75
2022/12/13 09:05:06;;;;;;;72.82;35.05;;;-5.00;99.90;;;;;;5084949;28;20448;-75
2022/12/13 09:07:34;;;;;;;72.93;35.03;;;-5.00;99.90;;;;;;5092557;28;20040;-75
2022/12/13 09:10:00;;;;;;;71.90;33.95;;;-4.90;99.90;;;;;;5070117;28;20048;-75
2022/12/13 09:12:26;;;;;;;64.53;34.45;;;-4.90;99.90;;;;;;5090170;28;20048;-76
2022/12/13 09:14:52;;;;;;;65.78;33.13;;;-4.90;99.90;;;;;;5088281;28;20089;-75
2022/12/13 09:17:17;;;;;;;73.88;35.38;;;-4.90;99.90;;;;;;5087973;28;20053;-76
2022/12/13 09:19:43;;;;;;;70.00;35.08;;;-4.80;99.90;;;;;;5082788;28;20040;-76
2022/12/13 09:22:09;;;;;;;67.55;32.83;;;-4.80;99.90;;;;;;5079589;28;20051;-76
2022/12/13 09:24:34;;;;;;;69.45;34.30;;;-4.70;99.90;;;;;;5081075;28;20051;-77
2022/12/13 09:27:00;;;;;;;69.90;36.03;;;-4.60;99.90;;;;;;5088827;28;20052;-76
2022/12/13 09:29:26;;;;;;;69.32;36.47;;;;;;;;;;5067200;28;20050;-76
2022/12/13 09:31:51;;;;;;;71.78;35.10;;;-4.50;99.90;;;;;;5055217;28;20040;-76
2022/12/13 09:34:17;;;;;;;74.68;36.75;;;-4.40;99.90;;;;;;5068080;28;20048;-76
2022/12/13 09:36:42;;;;;;;82.53;38.15;;;-4.40;99.90;;;;;;5073603;28;20059;-76
2022/12/13 09:39:10;;;;;;;82.53;38.78;;;-4.30;99.90;;;;;;5081400;28;20676;-73
2022/12/13 09:41:48;;;;;;;78.82;38.03;;;-4.10;99.90;;;;;;5076752;28;20044;-72
2022/12/13 09:44:38;;;;;;;73.00;35.72;;;-4.10;99.90;;;;;;5087227;28;20047;-72
2022/12/13 09:47:11;;;;;;;75.00;36.75;;;-4.00;99.90;;;;;;5089212;28;20097;-72
2022/12/13 09:49:40;;;;;;;72.97;36.67;;;-3.90;99.90;;;;;;5067098;28;20445;-72
2022/12/13 09:52:13;;;;;;;80.78;37.90;;;-3.80;99.90;;;;;;5085951;28;20048;-72
2022/12/13 09:54:39;;;;;;;75.00;38.20;;;-3.80;99.90;;;;;;5070761;28;20052;-72
2022/12/13 09:57:19;;;;;;;79.88;40.08;;;-3.70;99.90;;;;;;5083868;28;20105;-72
2022/12/13 09:59:46;;;;;;;83.57;42.75;;;-3.70;99.90;;;;;;5084359;28;20090;-72
2022/12/13 10:02:33;;;;;;;80.43;41.83;;;-3.60;99.90;;;;;;5062823;28;20044;-72
2022/12/13 10:05:13;;;;;;;83.40;43.22;;;-3.60;99.90;;;;;;5079707;28;20554;-72
2022/12/13 10:07:40;;;;;;;87.60;44.25;;;-3.50;99.90;;;;;;5077834;28;20493;-72
2022/12/13 10:10:05;;;;;;;75.78;40.35;;;-3.50;99.90;;;;;;5066521;28;20048;-72
2022/12/13 10:12:33;;;;;;;78.88;41.05;;;-3.40;99.90;;;;;;5089182;28;20047;-72
2022/12/13 10:15:01;;;;;;;97.18;51.92;;;-3.30;99.90;;;;;;5067274;28;20044;-76
2022/12/13 10:17:33;;;;;;;113.63;59.63;;;-3.30;99.90;;;;;;5079215;28;20043;-77
2022/12/13 10:19:59;;;;;;;79.68;42.70;;;-3.30;99.90;;;;;;5081968;28;20098;-76
2022/12/13 10:22:25;;;;;;;90.68;49.40;;;-3.20;99.90;;;;;;5085352;28;20059;-75
2022/12/13 10:25:02;;;;;;;75.40;40.70;;;-3.20;99.90;;;;;;5072535;28;20040;-75
2022/12/13 10:27:39;;;;;;;74.30;38.42;;;-3.10;99.90;;;;;;5062572;28;20036;-75
2022/12/13 10:30:24;;;;;;;65.72;37.35;;;-3.10;99.90;;;;;;5069892;28;20081;-75
2022/12/13 10:33:04;;;;;;;67.85;36.35;;;-3.10;99.90;;;;;;5084806;28;20039;-75
2022/12/13 10:35:33;;;;;;;63.65;35.60;;;-3.10;99.90;;;;;;5077171;28;20074;-75
2022/12/13 10:38:06;;;;;;;70.80;36.22;;;-3.10;99.90;;;;;;5044812;28;20051;-75
2022/12/13 10:40:39;;;;;;;76.45;38.78;;;-3.00;99.90;;;;;;5062199;28;20496;-75
2022/12/13 10:43:13;;;;;;;70.93;38.13;;;-3.00;99.90;;;;;;5077673;28;20033;-76
2022/12/13 10:45:58;;;;;;;71.07;37.60;;;-3.00;99.90;;;;;;5058266;28;20036;-77
2022/12/13 10:48:38;;;;;;;67.40;35.88;;;-3.00;99.90;;;;;;5081460;28;20057;-75
2022/12/13 10:51:08;;;;;;;69.60;37.53;;;-3.00;99.90;;;;;;5064556;28;20089;-75
2022/12/13 10:53:40;;;;;;;70.13;37.60;;;-2.90;99.90;;;;;;5085805;28;20055;-75
2022/12/13 10:56:06;;;;;;;68.78;37.97;;;-2.90;99.90;;;;;;5072220;28;20044;-75
2022/12/13 10:58:45;;;;;;;72.47;39.70;;;-2.80;99.90;;;;;;5082190;28;20047;-75
2022/12/13 11:01:28;;;;;;;67.05;36.55;;;-2.80;99.90;;;;;;5076615;28;20032;-75
2022/12/13 11:03:59;;;;;;;65.45;36.63;;;-2.80;99.90;;;;;;5094379;28;20048;-75
2022/12/13 11:06:26;;;;;;;74.25;38.85;;;-2.50;99.90;;;;;;5094774;28;20044;-75
2022/12/13 11:08:53;;;;;;;67.72;37.08;;;-2.70;99.90;;;;;;5091999;28;20087;-75
2022/12/13 11:11:27;;;;;;;67.50;37.30;;;-2.50;99.90;;;;;;5057356;28;20387;-75
2022/12/13 11:14:00;;;;;;;65.20;37.25;;;-2.70;99.90;;;;;;5079121;28;20076;-75
2022/12/13 11:16:34;;;;;;;67.35;37.00;;;-2.70;99.90;;;;;;5075701;28;20040;-75
2022/12/13 11:19:22;;;;;;;73.88;36.75;;;-2.60;99.90;;;;;;5075426;28;20051;-75
2022/12/13 11:21:49;;;;;;;67.70;37.10;;;;;;;;;;5086214;28;20119;-75
2022/12/13 11:24:32;;;;;;;64.63;36.90;;;-2.60;99.90;;;;;;5090842;28;20032;-75
2022/12/13 11:27:37;;;;;;;63.30;38.13;;;-2.60;99.90;;;;;;5057468;28;20202;-75
2022/12/13 11:30:10;;;;;;;69.47;38.17;;;-2.50;99.90;;;;;;4986942;28;20030;-75
2022/12/13 11:32:39;;;;;;;66.75;37.45;;;-2.50;99.90;;;;;;4980442;28;20097;-75
2022/12/13 11:35:23;;;;;;;74.47;38.53;;;-2.40;99.90;;;;;;4985887;28;20420;-74
2022/12/13 11:38:13;;;;;;;71.43;38.38;;;-2.40;99.90;;;;;;4970377;28;20134;-75
2022/12/13 11:40:51;;;;;;;74.28;39.60;;;-2.30;99.90;;;;;;4983329;28;20125;-75
2022/12/13 11:43:46;;;;;;;65.47;38.42;;;-2.30;99.90;;;;;;4987654;28;20078;-74
2022/12/13 11:46:33;;;;;;;69.35;37.50;;;-2.20;99.90;;;;;;4985572;28;20050;-75
2022/12/13 11:49:04;;;;;;;66.78;36.72;;;-2.20;99.90;;;;;;4974013;28;20053;-74
2022/12/13 11:51:56;;;;;;;65.82;37.40;;;-2.20;99.90;;;;;;4974890;28;20542;-74
2022/12/13 11:54:38;;;;;;;63.03;37.08;;;-2.20;99.90;;;;;;4981699;28;20058;-74
2022/12/13 11:57:18;;;;;;;66.20;37.45;;;-2.10;99.90;;;;;;4991188;28;20058;-74
2022/12/13 11:59:46;;;;;;;65.38;38.72;;;;;;;;;;4985039;28;20058;-75
2022/12/13 12:02:24;;;;;;;71.07;39.53;;;;;;;;;;4979703;28;20038;-75
2022/12/13 12:04:55;;;;;;;66.95;38.30;;;-1.90;99.90;;;;;;5035779;28;20056;-75
2022/12/13 12:07:26;;;;;;;70.15;38.22;;;-1.80;99.90;;;;;;5066696;28;20052;-75
2022/12/13 12:10:13;;;;;;;66.72;40.25;;;-1.80;99.90;;;;;;5086089;28;20068;-75
2022/12/13 12:12:44;;;;;;;68.80;39.67;;;-1.60;99.90;;;;;;5087632;28;20405;-75
2022/12/13 12:15:15;;;;;;;66.82;40.08;;;-1.50;99.90;;;;;;5063851;28;20143;-75
2022/12/13 12:17:41;;;;;;;64.03;39.03;;;-1.40;99.90;;;;;;5077340;28;20071;-74
2022/12/13 12:20:16;;;;;;;61.72;37.95;;;-1.30;99.90;;;;;;5084991;28;20074;-75
2022/12/13 12:22:58;;;;;;;63.28;36.95;;;-1.20;99.90;;;;;;5085410;28;20059;-75
2022/12/13 12:25:48;;;;;;;63.63;37.92;;;-1.00;99.90;;;;;;5086530;28;20047;-75
2022/12/13 12:28:56;;;;;;;64.47;36.58;;;-1.00;99.90;;;;;;5075285;28;20169;-75
2022/12/13 12:31:38;;;;;;;59.33;36.60;;;-0.90;99.90;;;;;;5085313;28;20058;-75
2022/12/13 12:34:46;;;;;;;59.45;35.97;;;-0.90;99.90;;;;;;5080501;28;20372;-75
2022/12/13 12:37:39;;;;;;;56.08;33.75;;;-0.70;99.90;;;;;;5082294;28;20056;-75
2022/12/13 12:40:31;;;;;;;56.35;33.47;;;-0.80;99.90;;;;;;5089519;28;20069;-75
2022/12/13 12:43:28;;;;;;;52.00;31.95;;;-0.70;99.90;;;;;;5078457;28;20100;-75
2022/12/13 12:46:06;;;;;;;49.30;32.08;;;-0.50;99.90;;;;;;5087249;28;20654;-75
2022/12/13 12:48:58;;;;;;;53.95;31.60;;;-0.70;99.90;;;;;;5087233;28;20101;-75
2022/12/13 12:51:39;;;;;;;53.13;31.67;;;-0.70;99.90;;;;;;5083244;28;20044;-75